Terminal Aerodrome Forecast
Issued by NWS

Home | Current Version | Previous Version | Text Only | Print | Product List | Glossary On
Versions: 1 2 3 4 5 6 7 8 9 10 11 12 13 14 15
000
FTUS43 KGRB 301127
TAFATW
TAF
KATW 301127Z 3012/0112 34008KT P6SM SCT008 SCT022
      TEMPO 3012/3014 4SM -RA BR BKN008 BKN022
     FM301500 36008KT P6SM BKN020 BKN035
     FM301800 36011KT P6SM BKN035
     FM010000 36007KT P6SM SCT040=

USA.gov is the U.S. government's official web portal to all federal, state and local government web resources and services.